createdAt,value
2019-05-30T00:00:34.649Z,88.40
2019-05-30T00:01:34.558Z,88.92
2019-05-30T00:02:34.540Z,89.13
2019-05-30T00:03:34.541Z,88.71
2019-05-30T00:04:34.454Z,89.13
2019-05-30T00:05:34.440Z,89.54
2019-05-30T00:06:34.415Z,89.44
2019-05-30T00:07:34.379Z,89.65
2019-05-30T00:08:34.349Z,89.75
2019-05-30T00:09:34.303Z,89.96
2019-05-30T00:10:34.269Z,89.86
2019-05-30T00:11:34.254Z,89.54
2019-05-30T00:12:34.213Z,89.75
2019-05-30T00:13:34.165Z,89.54
2019-05-30T00:14:34.137Z,89.44
2019-05-30T00:15:34.118Z,89.65
2019-05-30T00:16:34.081Z,89.86
2019-05-30T00:17:34.060Z,90.37
2019-05-30T00:18:34.002Z,90.52
2019-05-30T00:19:34.221Z,90.06
2019-05-30T00:20:33.954Z,89.89
2019-05-30T00:21:33.928Z,90.16
2019-05-30T00:22:33.877Z,90.26
2019-05-30T00:23:33.846Z,90.47
2019-05-30T00:24:33.813Z,90.52
2019-05-30T00:25:33.779Z,90.62
2019-05-30T00:26:33.778Z,90.41
2019-05-30T00:27:33.746Z,90.41
2019-05-30T00:28:33.711Z,91.35
2019-05-30T00:29:33.633Z,90.52
2019-05-30T00:30:33.629Z,91.35
2019-05-30T00:31:33.717Z,91.14
2019-05-30T00:32:33.545Z,91.45
2019-05-30T00:33:33.541Z,91.14
2019-05-30T00:34:33.472Z,91.14
2019-05-30T00:35:33.438Z,90.52
2019-05-30T00:36:33.458Z,90.52
2019-05-30T00:37:33.392Z,90.72
2019-05-30T00:38:33.390Z,90.72
2019-05-30T00:39:33.309Z,90.83
2019-05-30T00:40:33.265Z,91.24
2019-05-30T00:41:33.368Z,91.55
2019-05-30T00:42:33.204Z,91.45
2019-05-30T00:43:33.182Z,91.14
2019-05-30T00:44:33.205Z,91.49
2019-05-30T00:45:33.108Z,92.11
2019-05-30T00:46:33.095Z,91.91
2019-05-30T00:47:34.056Z,92.53
2019-05-30T00:48:33.018Z,92.43
2019-05-30T00:49:33.008Z,92.53
2019-05-30T00:50:32.965Z,92.74
2019-05-30T00:51:33.162Z,92.53
2019-05-30T00:52:32.879Z,92.94
2019-05-30T00:53:32.848Z,92.94
2019-05-30T00:54:32.812Z,93.15
2019-05-30T00:55:32.776Z,93.87
2019-05-30T00:56:32.767Z,93.56
2019-05-30T00:57:32.736Z,93.25
2019-05-30T00:58:32.691Z,93.35
2019-05-30T00:59:32.659Z,93.77
2019-05-30T01:00:42.572Z,93.56
2019-05-30T01:01:32.613Z,93.87
2019-05-30T01:02:32.561Z,93.56
2019-05-30T01:03:32.551Z,93.46
2019-05-30T01:04:32.474Z,93.46
2019-05-30T01:05:32.492Z,93.15
2019-05-30T01:06:32.435Z,94.08
2019-05-30T01:07:32.413Z,93.87
2019-05-30T01:08:32.356Z,94.33
2019-05-30T01:09:32.304Z,93.98
2019-05-30T01:10:32.295Z,93.98
2019-05-30T01:11:32.272Z,94.29
2019-05-30T01:12:32.263Z,94.39
2019-05-30T01:13:32.201Z,94.29
2019-05-30T01:14:32.167Z,93.98
2019-05-30T01:15:32.163Z,94.29
2019-05-30T01:16:32.082Z,94.23
2019-05-30T01:17:32.100Z,94.39
2019-05-30T01:18:32.004Z,94.29
2019-05-30T01:19:32.027Z,94.60
2019-05-30T01:20:31.979Z,94.29
2019-05-30T01:21:32.010Z,93.98
2019-05-30T01:22:31.892Z,93.56
2019-05-30T01:23:31.842Z,93.77
2019-05-30T01:24:31.883Z,93.35
2019-05-30T01:25:31.814Z,93.19
2019-05-30T01:26:31.765Z,93.66
2019-05-30T01:27:31.778Z,93.91
2019-05-30T01:28:31.684Z,93.81
2019-05-30T01:29:31.649Z,93.77
2019-05-30T01:30:31.650Z,94.12
2019-05-30T01:31:31.595Z,94.08
2019-05-30T01:32:32.095Z,94.33
2019-05-30T01:33:31.509Z,93.98
2019-05-30T01:34:31.581Z,94.02
2019-05-30T01:35:31.468Z,93.87
2019-05-30T01:36:31.402Z,94.33
2019-05-30T01:37:31.406Z,94.29
2019-05-30T01:38:31.352Z,94.39
2019-05-30T01:39:31.321Z,94.64
2019-05-30T01:40:31.377Z,94.39
2019-05-30T01:41:31.306Z,94.49
2019-05-30T01:42:31.339Z,94.29
2019-05-30T01:43:31.199Z,94.29
2019-05-30T01:44:31.186Z,93.87
2019-05-30T01:45:31.130Z,94.33
2019-05-30T01:46:31.098Z,94.43
2019-05-30T01:47:31.141Z,94.39
2019-05-30T01:48:31.055Z,94.60
2019-05-30T01:49:31.002Z,94.43
2019-05-30T01:50:30.943Z,94.39
2019-05-30T01:51:30.999Z,94.18
2019-05-30T01:52:30.960Z,94.08
2019-05-30T01:53:30.933Z,93.98
2019-05-30T01:54:30.866Z,94.29
2019-05-30T01:55:30.835Z,94.39
2019-05-30T01:56:30.796Z,94.60
2019-05-30T01:57:31.563Z,95.06
2019-05-30T01:58:30.794Z,94.49
2019-05-30T01:59:30.651Z,94.49
2019-05-30T02:00:30.632Z,94.60
2019-05-30T02:01:30.572Z,94.49
2019-05-30T02:02:30.555Z,94.29
2019-05-30T02:03:30.512Z,94.60
2019-05-30T02:04:30.476Z,94.08
2019-05-30T02:05:30.504Z,93.77
2019-05-30T02:06:30.495Z,93.98
2019-05-30T02:07:30.498Z,93.87
2019-05-30T02:08:30.405Z,94.29
2019-05-30T02:09:30.303Z,94.18
2019-05-30T02:10:30.292Z,93.87
2019-05-30T02:11:30.282Z,93.62
2019-05-30T02:12:30.255Z,94.04
2019-05-30T02:13:30.208Z,93.93
2019-05-30T02:14:30.146Z,94.04
2019-05-30T02:15:30.140Z,93.52
2019-05-30T02:16:30.107Z,93.52
2019-05-30T02:17:30.567Z,93.52
2019-05-30T02:18:30.007Z,93.83
2019-05-30T02:19:29.961Z,94.24
2019-05-30T02:20:29.976Z,93.31
2019-05-30T02:21:29.923Z,93.21
2019-05-30T02:22:29.906Z,93.31
2019-05-30T02:23:29.859Z,93.83
2019-05-30T02:24:29.873Z,93.93
2019-05-30T02:25:29.820Z,93.31
2019-05-30T02:26:29.757Z,93.52
2019-05-30T02:27:29.799Z,93.52
2019-05-30T02:28:29.671Z,93.06
2019-05-30T02:29:29.633Z,93.21
2019-05-30T02:30:29.605Z,93.31
2019-05-30T02:31:39.005Z,93.73
2019-05-30T02:32:29.535Z,93.31
2019-05-30T02:33:29.593Z,93.83
2019-05-30T02:34:29.543Z,93.00
2019-05-30T02:35:29.505Z,93.52
2019-05-30T02:36:29.421Z,93.48
2019-05-30T02:37:29.399Z,92.90
2019-05-30T02:38:30.073Z,93.10
2019-05-30T02:39:29.353Z,93.52
2019-05-30T02:40:29.294Z,93.00
2019-05-30T02:41:29.226Z,93.41
2019-05-30T02:42:29.198Z,93.10
2019-05-30T02:43:29.337Z,93.73
2019-05-30T02:44:30.675Z,93.93
2019-05-30T02:45:29.111Z,93.87
2019-05-30T02:46:29.087Z,93.46
2019-05-30T02:47:29.037Z,93.98
2019-05-30T02:48:29.036Z,93.56
2019-05-30T02:49:28.977Z,93.66
2019-05-30T02:50:28.942Z,93.56
2019-05-30T02:51:28.907Z,93.35
2019-05-30T02:52:28.867Z,93.15
2019-05-30T02:53:28.875Z,93.77
2019-05-30T02:54:28.831Z,93.25
2019-05-30T02:55:28.766Z,93.35
2019-05-30T02:56:28.757Z,93.35
2019-05-30T02:57:28.698Z,93.77
2019-05-30T02:58:28.718Z,93.98
2019-05-30T02:59:28.633Z,93.77
2019-05-30T03:00:28.625Z,93.25
2019-05-30T03:01:28.562Z,93.77
2019-05-30T03:02:28.526Z,93.25
2019-05-30T03:03:28.558Z,93.35
2019-05-30T03:04:28.461Z,93.52
2019-05-30T03:05:28.494Z,93.77
2019-05-30T03:06:28.403Z,93.25
2019-05-30T03:07:28.363Z,93.56
2019-05-30T03:08:28.363Z,93.56
2019-05-30T03:09:28.314Z,93.62
2019-05-30T03:10:28.302Z,93.62
2019-05-30T03:11:28.235Z,93.77
2019-05-30T03:12:28.206Z,93.66
2019-05-30T03:13:28.223Z,93.46
2019-05-30T03:14:28.137Z,93.21
2019-05-30T03:15:28.100Z,93.35
2019-05-30T03:16:28.067Z,93.52
2019-05-30T03:17:28.036Z,93.25
2019-05-30T03:18:28.033Z,93.00
2019-05-30T03:19:27.962Z,93.52
2019-05-30T03:20:27.927Z,93.46
2019-05-30T03:21:27.892Z,93.10
2019-05-30T03:22:27.863Z,93.93
2019-05-30T03:23:27.855Z,93.31
2019-05-30T03:24:27.803Z,93.41
2019-05-30T03:25:27.766Z,93.31
2019-05-30T03:26:27.729Z,93.21
2019-05-30T03:27:27.694Z,93.10
2019-05-30T03:28:27.688Z,93.00
2019-05-30T03:29:27.631Z,92.80
2019-05-30T03:30:29.461Z,92.80
2019-05-30T03:31:29.691Z,92.76
2019-05-30T03:33:02.629Z,92.34
2019-05-30T03:33:38.866Z,92.44
2019-05-30T03:34:29.258Z,92.65
2019-05-30T03:35:31.267Z,92.34
2019-05-30T03:36:31.323Z,92.24
2019-05-30T03:37:29.854Z,92.24
2019-05-30T03:38:27.335Z,92.34
2019-05-30T03:39:27.326Z,92.09
2019-05-30T03:40:29.184Z,92.09
2019-05-30T03:41:27.231Z,92.30
2019-05-30T03:42:27.195Z,91.99
2019-05-30T03:43:27.160Z,91.67
2019-05-30T03:44:27.157Z,91.67
2019-05-30T03:45:27.098Z,91.47
2019-05-30T03:46:27.078Z,91.01
2019-05-30T03:47:27.106Z,90.87
2019-05-30T03:48:27.048Z,90.04
2019-05-30T03:49:26.994Z,89.48
2019-05-30T03:50:26.940Z,88.45
2019-05-30T03:51:26.902Z,88.20
2019-05-30T03:52:26.870Z,88.45
2019-05-30T03:53:26.838Z,88.20
2019-05-30T03:54:26.847Z,88.20
2019-05-30T03:55:26.778Z,88.34
2019-05-30T03:56:26.805Z,87.93
2019-05-30T03:57:26.710Z,88.04
2019-05-30T03:58:26.697Z,88.55
2019-05-30T03:59:26.679Z,87.83
2019-05-30T04:00:26.615Z,88.45
2019-05-30T04:01:26.576Z,88.51
2019-05-30T04:02:26.537Z,88.76
2019-05-30T04:03:26.505Z,88.61
2019-05-30T04:04:26.508Z,88.51
2019-05-30T04:05:26.438Z,88.31
2019-05-30T04:06:26.414Z,88.41
2019-05-30T04:07:26.378Z,88.41
2019-05-30T04:08:26.345Z,88.71
2019-05-30T04:09:26.339Z,88.06
2019-05-30T04:10:26.279Z,87.19
2019-05-30T04:11:26.247Z,87.15
2019-05-30T04:12:26.211Z,86.15
2019-05-30T04:13:26.180Z,85.17
2019-05-30T04:14:26.224Z,83.90
2019-05-30T04:15:26.121Z,83.49
2019-05-30T04:16:26.094Z,83.59
2019-05-30T04:17:26.051Z,83.63
2019-05-30T04:18:26.030Z,83.53
2019-05-30T04:19:26.036Z,83.49
2019-05-30T04:20:25.968Z,83.59
2019-05-30T04:21:25.926Z,84.00
2019-05-30T04:22:25.903Z,83.70
2019-05-30T04:23:25.869Z,83.18
2019-05-30T04:24:25.829Z,83.28
2019-05-30T04:25:25.820Z,83.90
2019-05-30T04:26:25.762Z,84.11
2019-05-30T04:27:25.731Z,84.93
2019-05-30T04:28:25.703Z,84.83
2019-05-30T04:29:25.666Z,84.83
2019-05-30T04:30:25.662Z,84.72
2019-05-30T04:31:32.651Z,84.69
2019-05-30T04:32:26.179Z,84.89
2019-05-30T04:33:32.334Z,83.97
2019-05-30T04:34:25.519Z,84.89
2019-05-30T04:35:25.504Z,84.69
2019-05-30T04:36:25.446Z,84.54
2019-05-30T04:37:25.424Z,83.83
2019-05-30T04:38:25.382Z,83.62
2019-05-30T04:39:25.354Z,83.41
2019-05-30T04:40:25.348Z,83.41
2019-05-30T04:41:25.291Z,83.58
2019-05-30T04:42:25.258Z,82.96
2019-05-30T04:43:25.231Z,82.20
2019-05-30T04:44:25.199Z,81.28
2019-05-30T04:45:27.977Z,81.79
2019-05-30T04:46:25.130Z,81.34
2019-05-30T04:47:25.099Z,80.25
2019-05-30T04:48:25.073Z,78.20
2019-05-30T04:49:25.039Z,78.88
2019-05-30T04:50:25.038Z,77.85
2019-05-30T04:51:24.977Z,77.85
2019-05-30T04:52:25.200Z,77.03
2019-05-30T04:53:24.922Z,76.38
2019-05-30T04:54:24.887Z,75.73
2019-05-30T04:55:24.892Z,75.32
2019-05-30T04:56:24.820Z,74.49
2019-05-30T04:57:27.044Z,73.47
2019-05-30T04:58:24.764Z,74.36
2019-05-30T04:59:24.734Z,72.78
2019-05-30T05:00:24.730Z,73.40
2019-05-30T05:01:24.676Z,71.62
2019-05-30T05:02:24.647Z,70.81
2019-05-30T05:03:44.110Z,70.77
2019-05-30T05:04:24.591Z,70.57
2019-05-30T05:05:26.994Z,70.77
2019-05-30T05:06:24.519Z,70.70
2019-05-30T05:07:25.180Z,70.77
2019-05-30T05:08:24.461Z,70.67
2019-05-30T05:09:24.429Z,70.26
2019-05-30T05:10:24.427Z,70.74
2019-05-30T05:11:25.447Z,69.61
2019-05-30T05:12:24.339Z,69.10
2019-05-30T05:13:24.311Z,68.59
2019-05-30T05:14:24.300Z,69.10
2019-05-30T05:15:24.242Z,69.17
2019-05-30T05:16:34.929Z,67.74
2019-05-30T05:17:24.365Z,68.22
2019-05-30T05:18:24.160Z,67.71
2019-05-30T05:19:26.257Z,67.10
2019-05-30T05:20:24.094Z,66.04
2019-05-30T05:21:24.100Z,65.63
2019-05-30T05:22:24.060Z,65.50
2019-05-30T05:23:24.006Z,65.16
2019-05-30T05:24:24.026Z,65.50
2019-05-30T05:25:23.953Z,65.67
2019-05-30T05:26:23.937Z,65.19
2019-05-30T05:27:24.067Z,64.75
2019-05-30T05:28:24.085Z,63.93
2019-05-30T05:29:24.190Z,64.96
2019-05-30T05:30:24.392Z,64.34
2019-05-30T05:31:24.454Z,64.86
2019-05-30T05:32:24.643Z,65.77
2019-05-30T05:33:24.776Z,64.65
2019-05-30T05:34:24.802Z,63.93
2019-05-30T05:35:24.925Z,64.24
2019-05-30T05:36:23.638Z,63.81
2019-05-30T05:37:23.592Z,63.81
2019-05-30T05:38:24.419Z,63.70
2019-05-30T05:39:24.210Z,63.49
2019-05-30T05:40:24.400Z,64.01
2019-05-30T05:41:24.331Z,63.49
2019-05-30T05:42:28.050Z,62.58
2019-05-30T05:43:24.484Z,63.09
2019-05-30T05:44:24.450Z,62.48
2019-05-30T05:45:24.616Z,63.06
2019-05-30T05:46:24.521Z,63.06
2019-05-30T05:47:24.548Z,63.16
2019-05-30T05:48:24.570Z,63.06
2019-05-30T05:49:24.872Z,62.65
2019-05-30T05:50:24.503Z,62.24
2019-05-30T05:51:23.223Z,61.43
2019-05-30T05:52:23.152Z,61.71
2019-05-30T05:53:23.170Z,61.50
2019-05-30T05:54:23.100Z,61.71
2019-05-30T05:55:23.062Z,60.99
2019-05-30T05:56:23.033Z,60.89
2019-05-30T05:57:23.042Z,61.09
2019-05-30T05:58:23.940Z,60.78
2019-05-30T05:59:23.114Z,61.30
2019-05-30T06:00:23.385Z,60.86
2019-05-30T06:01:23.402Z,60.55
2019-05-30T06:02:23.280Z,60.45
2019-05-30T06:03:24.143Z,60.14
2019-05-30T06:04:23.299Z,60.45
2019-05-30T06:05:22.773Z,60.22
2019-05-30T06:06:23.438Z,59.51
2019-05-30T06:07:22.743Z,59.91
2019-05-30T06:08:23.730Z,59.81
2019-05-30T06:09:24.603Z,59.20
2019-05-30T06:10:23.722Z,59.68
2019-05-30T06:11:22.761Z,59.17
2019-05-30T06:12:23.793Z,59.58
2019-05-30T06:13:22.896Z,59.78
2019-05-30T06:14:22.821Z,59.55
2019-05-30T06:15:22.924Z,59.38
2019-05-30T06:16:22.467Z,59.35
2019-05-30T06:17:23.119Z,59.25
2019-05-30T06:18:22.418Z,58.53
2019-05-30T06:19:23.225Z,58.10
2019-05-30T06:20:23.318Z,58.53
2019-05-30T06:21:23.419Z,58.33
2019-05-30T06:22:23.613Z,58.51
2019-05-30T06:23:23.390Z,57.90
2019-05-30T06:24:22.230Z,58.00
2019-05-30T06:25:24.613Z,58.00
2019-05-30T06:26:22.511Z,56.88
2019-05-30T06:27:22.170Z,56.77
2019-05-30T06:28:22.118Z,57.56
2019-05-30T06:29:22.187Z,57.77
2019-05-30T06:30:22.388Z,57.67
2019-05-30T06:31:22.460Z,57.06
2019-05-30T06:32:22.910Z,56.65
2019-05-30T06:33:23.557Z,56.24
2019-05-30T06:34:34.865Z,57.06
2019-05-30T06:35:22.991Z,56.95
2019-05-30T06:36:22.961Z,56.45
2019-05-30T06:37:23.063Z,56.34
2019-05-30T06:38:21.839Z,56.34
2019-05-30T06:39:21.818Z,55.94
2019-05-30T06:40:21.784Z,56.01
2019-05-30T06:41:21.761Z,55.81
2019-05-30T06:42:21.774Z,55.81
2019-05-30T06:43:21.956Z,55.60
2019-05-30T06:44:22.213Z,55.38
2019-05-30T06:45:23.665Z,55.91
2019-05-30T06:46:22.093Z,55.78
2019-05-30T06:47:22.178Z,56.19
2019-05-30T06:48:22.604Z,54.97
2019-05-30T06:49:22.792Z,54.46
2019-05-30T06:50:22.471Z,54.36
2019-05-30T06:51:22.588Z,53.72
2019-05-30T06:52:21.488Z,53.32
2019-05-30T06:53:21.422Z,51.90
2019-05-30T06:54:21.898Z,52.40
2019-05-30T06:55:21.365Z,51.16
2019-05-30T06:56:21.337Z,50.56
2019-05-30T06:57:21.334Z,50.65
2019-05-30T06:58:39.131Z,50.43
2019-05-30T06:59:21.468Z,51.14
2019-05-30T07:00:21.702Z,51.14
2019-05-30T07:01:22.017Z,50.81
2019-05-30T07:02:22.253Z,48.88
2019-05-30T07:03:22.133Z,48.48
2019-05-30T07:04:22.808Z,49.39
2019-05-30T07:05:22.915Z,50.10
2019-05-30T07:06:22.538Z,48.86
2019-05-30T07:07:22.727Z,48.46
2019-05-30T07:08:21.047Z,48.96
2019-05-30T07:09:20.995Z,48.76
2019-05-30T07:10:22.662Z,48.86
2019-05-30T07:11:20.925Z,47.92
2019-05-30T07:12:20.900Z,47.92
2019-05-30T07:13:20.895Z,47.31
2019-05-30T07:14:20.846Z,47.52
2019-05-30T07:15:20.821Z,47.72
2019-05-30T07:16:20.795Z,47.90
2019-05-30T07:17:20.764Z,47.30
2019-05-30T07:18:20.758Z,47.92
2019-05-30T07:19:20.719Z,47.19
2019-05-30T07:20:20.677Z,47.30
2019-05-30T07:21:20.659Z,47.50
2019-05-30T07:22:20.632Z,47.70
2019-05-30T07:23:20.631Z,47.39
2019-05-30T07:24:20.575Z,47.50
2019-05-30T07:25:20.547Z,48.51
2019-05-30T07:26:20.514Z,47.70
2019-05-30T07:27:20.495Z,47.60
2019-05-30T07:28:20.486Z,48.31
2019-05-30T07:29:20.442Z,48.49
2019-05-30T07:30:20.417Z,47.47
2019-05-30T07:31:20.391Z,47.88
2019-05-30T07:32:20.358Z,47.67
2019-05-30T07:33:20.354Z,47.47
2019-05-30T07:34:20.309Z,46.77
2019-05-30T07:35:20.304Z,46.36
2019-05-30T07:36:21.206Z,47.67
2019-05-30T07:37:20.258Z,47.47
2019-05-30T07:38:20.241Z,47.75
2019-05-30T07:39:20.181Z,47.15
2019-05-30T07:40:20.143Z,48.57
2019-05-30T07:41:20.119Z,48.85
2019-05-30T07:42:20.103Z,49.27
2019-05-30T07:43:20.087Z,49.35
2019-05-30T07:44:20.042Z,49.35
2019-05-30T07:45:20.012Z,48.54
2019-05-30T07:46:19.995Z,47.94
2019-05-30T07:47:19.958Z,47.81
2019-05-30T07:48:19.928Z,46.80
2019-05-30T07:49:19.925Z,47.31
2019-05-30T07:50:19.884Z,45.69
2019-05-30T07:51:19.850Z,44.68
2019-05-30T07:52:19.821Z,45.49
2019-05-30T07:53:19.836Z,44.78
2019-05-30T07:54:19.795Z,45.08
2019-05-30T07:55:19.741Z,46.09
2019-05-30T07:56:19.725Z,45.67
2019-05-30T07:57:19.694Z,46.40
2019-05-30T07:58:19.675Z,45.57
2019-05-30T07:59:19.775Z,44.96
2019-05-30T08:00:19.612Z,45.57
2019-05-30T08:01:19.585Z,44.46
2019-05-30T08:02:19.555Z,44.25
2019-05-30T08:03:19.529Z,45.14
2019-05-30T08:04:19.581Z,45.45
2019-05-30T08:05:24.000Z,45.45
2019-05-30T08:06:19.450Z,44.23
2019-05-30T08:07:19.422Z,45.04
2019-05-30T08:08:19.401Z,45.04
2019-05-30T08:09:19.401Z,45.65
2019-05-30T08:10:20.222Z,45.14
2019-05-30T08:11:19.332Z,44.64
2019-05-30T08:12:19.294Z,44.51
2019-05-30T08:13:19.268Z,45.75
2019-05-30T08:14:19.267Z,44.42
2019-05-30T08:15:19.213Z,43.80
2019-05-30T08:16:19.198Z,44.82
2019-05-30T08:17:19.164Z,44.62
2019-05-30T08:18:19.146Z,43.80
2019-05-30T08:19:19.133Z,45.12
2019-05-30T08:20:19.089Z,44.29
2019-05-30T08:21:19.070Z,44.09
2019-05-30T08:22:19.048Z,44.07
2019-05-30T08:23:19.010Z,43.99
2019-05-30T08:24:19.017Z,44.59
2019-05-30T08:25:18.953Z,44.67
2019-05-30T08:26:18.986Z,44.78
2019-05-30T08:27:19.051Z,45.78
2019-05-30T08:28:18.889Z,44.37
2019-05-30T08:29:18.886Z,43.97
2019-05-30T08:30:18.831Z,43.87
2019-05-30T08:31:18.802Z,44.27
2019-05-30T08:32:18.781Z,43.77
2019-05-30T08:33:21.519Z,43.34
2019-05-30T08:34:18.750Z,43.14
2019-05-30T08:35:18.699Z,43.85
2019-05-30T08:36:18.681Z,44.75
2019-05-30T08:37:18.673Z,43.74
2019-05-30T08:38:18.617Z,43.04
2019-05-30T08:39:18.618Z,43.14
2019-05-30T08:40:18.569Z,43.65
2019-05-30T08:41:18.565Z,44.02
2019-05-30T08:42:18.531Z,43.24
2019-05-30T08:43:18.496Z,44.55
2019-05-30T08:44:18.493Z,43.14
2019-05-30T08:45:18.441Z,43.52
2019-05-30T08:46:18.420Z,43.04
2019-05-30T08:47:18.393Z,42.52
2019-05-30T08:48:18.372Z,42.92
2019-05-30T08:49:18.376Z,43.12
2019-05-30T08:50:18.319Z,43.12
2019-05-30T08:51:18.307Z,42.61
2019-05-30T08:52:18.265Z,43.12
2019-05-30T08:53:18.249Z,42.92
2019-05-30T08:54:18.269Z,44.11
2019-05-30T08:55:18.194Z,43.30
2019-05-30T08:56:18.170Z,43.10
2019-05-30T08:57:18.136Z,42.70
2019-05-30T08:58:18.138Z,42.70
2019-05-30T08:59:18.111Z,43.10
2019-05-30T09:00:18.066Z,41.59
2019-05-30T09:01:18.038Z,41.19
2019-05-30T09:02:18.020Z,41.69
2019-05-30T09:03:17.992Z,41.79
2019-05-30T09:04:17.962Z,41.89
2019-05-30T09:05:17.970Z,41.69
2019-05-30T09:06:17.941Z,43.40
2019-05-30T09:07:17.890Z,42.70
2019-05-30T09:08:17.869Z,43.10
2019-05-30T09:09:17.833Z,41.57
2019-05-30T09:10:17.886Z,41.47
2019-05-30T09:11:17.788Z,41.47
2019-05-30T09:12:17.763Z,40.46
2019-05-30T09:13:17.735Z,40.66
2019-05-30T09:14:17.720Z,41.57
2019-05-30T09:15:21.603Z,41.57
2019-05-30T09:16:17.663Z,41.27
2019-05-30T09:17:17.639Z,41.47
2019-05-30T09:18:17.614Z,41.06
2019-05-30T09:19:17.589Z,41.87
2019-05-30T09:20:17.590Z,42.68
2019-05-30T09:21:17.540Z,43.99
2019-05-30T09:22:17.562Z,43.18
2019-05-30T09:23:17.488Z,42.47
2019-05-30T09:24:17.563Z,42.15
2019-05-30T09:25:17.460Z,42.76
2019-05-30T09:26:17.411Z,42.86
2019-05-30T09:27:17.388Z,41.35
2019-05-30T09:28:17.364Z,40.24
2019-05-30T09:29:17.333Z,41.53
2019-05-30T09:30:17.342Z,42.64
2019-05-30T09:31:17.283Z,42.54
2019-05-30T09:32:17.268Z,42.64
2019-05-30T09:33:17.738Z,41.51
2019-05-30T09:34:17.215Z,41.11
2019-05-30T09:35:17.209Z,41.21
2019-05-30T09:36:17.170Z,41.01
2019-05-30T09:37:17.144Z,42.52
2019-05-30T09:38:17.148Z,41.51
2019-05-30T09:39:20.666Z,41.21
2019-05-30T09:40:17.100Z,41.11
2019-05-30T09:41:17.036Z,43.02
2019-05-30T09:42:17.013Z,41.61
2019-05-30T09:43:17.095Z,41.89
2019-05-30T09:44:16.970Z,40.69
2019-05-30T09:45:17.358Z,40.19
2019-05-30T09:46:16.985Z,40.28
2019-05-30T09:47:16.889Z,42.60
2019-05-30T09:48:22.667Z,41.19
2019-05-30T09:49:16.843Z,40.99
2019-05-30T09:50:16.853Z,40.39
2019-05-30T09:51:16.796Z,40.48
2019-05-30T09:52:16.770Z,41.09
2019-05-30T09:53:17.296Z,40.39
2019-05-30T09:54:16.723Z,40.59
2019-05-30T09:55:16.760Z,40.87
2019-05-30T09:56:16.675Z,40.87
2019-05-30T09:57:16.666Z,39.97
2019-05-30T09:58:16.630Z,39.88
2019-05-30T09:59:16.599Z,39.86
2019-05-30T10:00:16.596Z,40.77
2019-05-30T10:01:16.555Z,40.26
2019-05-30T10:02:16.530Z,40.75
2019-05-30T10:03:16.539Z,40.15
2019-05-30T10:04:16.483Z,39.84
2019-05-30T10:05:16.484Z,40.15
2019-05-30T10:06:28.392Z,40.43
2019-05-30T10:07:16.412Z,38.72
2019-05-30T10:08:16.458Z,38.62
2019-05-30T10:09:16.357Z,39.32
2019-05-30T10:10:16.424Z,38.62
2019-05-30T10:11:16.314Z,39.73
2019-05-30T10:12:17.170Z,39.53
2019-05-30T10:13:16.274Z,38.53
2019-05-30T10:14:16.239Z,39.03
2019-05-30T10:15:16.215Z,39.32
2019-05-30T10:16:16.218Z,39.11
2019-05-30T10:17:16.173Z,39.31
2019-05-30T10:18:16.144Z,38.81
2019-05-30T10:19:16.118Z,38.79
2019-05-30T10:20:16.096Z,38.99
2019-05-30T10:21:16.106Z,39.39
2019-05-30T10:22:16.056Z,39.39
2019-05-30T10:23:16.035Z,38.89
2019-05-30T10:24:16.006Z,38.39
2019-05-30T10:25:15.990Z,38.87
2019-05-30T10:26:15.983Z,39.67
2019-05-30T10:27:15.937Z,39.47
2019-05-30T10:28:16.017Z,38.57
2019-05-30T10:29:15.900Z,37.57
2019-05-30T10:30:15.869Z,37.77
2019-05-30T10:31:15.865Z,36.98
2019-05-30T10:32:25.277Z,36.76
2019-05-30T10:33:15.793Z,37.66
2019-05-30T10:34:15.773Z,36.98
2019-05-30T10:35:15.747Z,37.08
2019-05-30T10:36:15.742Z,38.49
2019-05-30T10:37:15.700Z,38.79
2019-05-30T10:38:15.695Z,38.49
2019-05-30T10:39:15.649Z,38.59
2019-05-30T10:40:15.635Z,40.37
2019-05-30T10:41:15.632Z,38.37
2019-05-30T10:42:15.607Z,38.25
2019-05-30T10:43:15.565Z,38.85
2019-05-30T10:44:15.539Z,38.15
2019-05-30T10:45:15.513Z,37.35
2019-05-30T10:46:15.538Z,37.85
2019-05-30T10:47:15.464Z,37.65
2019-05-30T10:48:15.440Z,36.85
2019-05-30T10:49:15.417Z,36.94
2019-05-30T10:50:15.427Z,36.85
2019-05-30T10:51:15.395Z,37.85
2019-05-30T10:52:15.358Z,37.75
2019-05-30T10:53:15.334Z,37.25
2019-05-30T10:54:15.306Z,36.44
2019-05-30T10:55:15.305Z,36.75
2019-05-30T10:56:15.290Z,36.94
2019-05-30T10:57:15.237Z,36.55
2019-05-30T10:58:15.215Z,37.33
2019-05-30T10:59:15.192Z,36.63
2019-05-30T11:00:15.171Z,35.83
2019-05-30T11:01:15.180Z,37.63
2019-05-30T11:02:15.125Z,36.93
2019-05-30T11:03:15.105Z,36.85
2019-05-30T11:04:15.099Z,37.05
2019-05-30T11:05:15.068Z,36.03
2019-05-30T11:06:15.069Z,37.53
2019-05-30T11:07:15.009Z,37.53
2019-05-30T11:08:14.984Z,37.21
2019-05-30T11:09:14.967Z,37.31
2019-05-30T11:10:14.950Z,36.81
2019-05-30T11:11:14.961Z,37.40
2019-05-30T11:12:14.928Z,36.60
2019-05-30T11:13:14.894Z,37.59
2019-05-30T11:14:14.847Z,35.08
2019-05-30T11:15:14.826Z,35.99
2019-05-30T11:16:14.824Z,36.40
2019-05-30T11:17:14.836Z,35.39
2019-05-30T11:18:14.774Z,35.80
2019-05-30T11:19:14.744Z,36.28
2019-05-30T11:20:14.729Z,35.78
2019-05-30T11:21:14.726Z,37.48
2019-05-30T11:22:14.705Z,37.58
2019-05-30T11:23:14.647Z,35.06
2019-05-30T11:24:14.626Z,34.76
2019-05-30T11:25:14.601Z,35.14
2019-05-30T11:26:14.595Z,35.14
2019-05-30T11:27:14.594Z,35.42
2019-05-30T11:28:14.548Z,34.75
2019-05-30T11:29:14.510Z,34.96
2019-05-30T11:30:14.511Z,35.26
2019-05-30T11:31:14.468Z,34.66
2019-05-30T11:32:14.475Z,34.86
2019-05-30T11:33:14.425Z,36.46
2019-05-30T11:34:14.401Z,36.66
2019-05-30T11:35:14.382Z,36.84
2019-05-30T11:36:14.359Z,36.94
2019-05-30T11:37:18.474Z,35.33
2019-05-30T11:38:14.318Z,34.53
2019-05-30T11:39:14.339Z,35.03
2019-05-30T11:40:14.270Z,34.43
2019-05-30T11:41:14.296Z,34.43
2019-05-30T11:42:14.253Z,34.33
2019-05-30T11:43:14.210Z,34.21
2019-05-30T11:44:14.201Z,34.51
2019-05-30T11:45:14.174Z,35.11
2019-05-30T11:46:14.171Z,34.39
2019-05-30T11:47:14.164Z,34.09
2019-05-30T11:48:14.171Z,33.38
2019-05-30T11:49:14.076Z,33.48
2019-05-30T11:50:14.061Z,34.78
2019-05-30T11:51:14.042Z,33.98
2019-05-30T11:52:14.039Z,34.98
2019-05-30T11:53:13.991Z,33.88
2019-05-30T11:54:13.974Z,35.08
2019-05-30T11:55:14.001Z,32.78
2019-05-30T11:56:13.938Z,32.98
2019-05-30T11:57:13.938Z,33.28
2019-05-30T11:58:13.904Z,33.08
2019-05-30T11:59:13.865Z,33.37
2019-05-30T12:00:13.846Z,33.56
2019-05-30T12:01:13.892Z,33.97
2019-05-30T12:02:13.833Z,33.67
2019-05-30T12:03:13.783Z,35.36
2019-05-30T12:04:13.759Z,34.34
2019-05-30T12:05:13.744Z,33.55
2019-05-30T12:06:13.728Z,33.34
2019-05-30T12:07:13.696Z,33.34
2019-05-30T12:08:13.710Z,32.64
2019-05-30T12:09:14.667Z,33.73
2019-05-30T12:10:13.647Z,32.84
2019-05-30T12:11:13.632Z,33.44
2019-05-30T12:12:13.619Z,33.14
2019-05-30T12:13:13.620Z,33.32
2019-05-30T12:14:13.560Z,33.52
2019-05-30T12:15:13.540Z,33.63
2019-05-30T12:16:13.555Z,34.33
2019-05-30T12:17:13.504Z,34.23
2019-05-30T12:18:13.505Z,33.34
2019-05-30T12:19:13.461Z,32.72
2019-05-30T12:20:13.544Z,33.52
2019-05-30T12:21:13.424Z,33.32
2019-05-30T12:22:13.403Z,33.60
2019-05-30T12:23:13.412Z,33.42
2019-05-30T12:24:13.401Z,32.82
2019-05-30T12:25:13.395Z,33.32
2019-05-30T12:26:13.355Z,34.22
2019-05-30T12:27:13.372Z,33.92
2019-05-30T12:28:14.341Z,34.40
2019-05-30T12:29:13.387Z,32.32
2019-05-30T12:30:14.253Z,32.84
2019-05-30T12:31:13.337Z,33.34
2019-05-30T12:32:13.395Z,34.43
2019-05-30T12:33:13.387Z,34.63
2019-05-30T12:34:16.244Z,35.72
2019-05-30T12:35:13.263Z,33.56
2019-05-30T12:36:13.301Z,34.58
2019-05-30T12:37:13.144Z,34.08
2019-05-30T12:38:13.740Z,34.78
2019-05-30T12:39:13.145Z,34.86
2019-05-30T12:40:13.350Z,34.56
2019-05-30T12:41:13.046Z,34.56
2019-05-30T12:42:13.016Z,34.16
2019-05-30T12:43:13.070Z,33.97
2019-05-30T12:44:12.966Z,33.86
2019-05-30T12:45:12.953Z,34.76
2019-05-30T12:46:12.932Z,34.27
2019-05-30T12:47:12.904Z,33.38
2019-05-30T12:48:12.911Z,34.88
2019-05-30T12:49:12.867Z,34.89
2019-05-30T12:50:15.966Z,35.29
2019-05-30T12:51:12.823Z,34.98
2019-05-30T12:52:12.806Z,34.68